Airfield :
LOGIN :

Register | Disclaimer

   EN    FR    IT 

 










Legend :    VFR   Marginal VFR   IFR   Intensive IFR   Very Intensive IFR
Visi :
Ceiling :
>= 8 km
>= 3000ft
5 to 8 km
1000 to 3000 ft
1500m to 5 km
500 to 1000 ft
800 to 1500m
200 to 500 ft
< 800m
< 200 ft
Symbols :   Thunderstorms  Fog  Heavy snow  Heavy precipitations  Wind > 20 kt
SIGMETs :     Misc.  Thunderstorms  Icing  Turbulence  Mountain Waves  Volcanic Ashes







- Airport Elevation : 348 ft
- IATA code : STN
- Download approach charts


EGSS - London Stansted

CURRENT METAR :
  • 152050Z AUTO 16012KT 9999 OVC004 04/04 Q1002

EXPIRED METARs :
  • 152020Z AUTO 15015KT 8000 -RA OVC004 03/03 Q1002 RERA
  • 151950Z AUTO 15017KT 9999 -RA OVC004 03/02 Q1002 RERA
  • 151920Z 15018KT 5000 RA OVC005 02/02 Q1003 RERA
  • 151850Z 15020KT 4000 RA OVC005 02/02 Q1003 RERA
  • 151820Z 15018KT 3400 RA OVC005 02/01 Q1004 RERA

TAF AMD TAF EGSS
Valid from the 15 at 20:00 until the 17 at 00:00 UTC


152050Z 1520/1624 15018G28KT 7000 -RA BKN004
BECMG 1520/1523 22012KT 9999 NSW SCT022
TEMPO 1600/1612 6000
PROB30 1603/1610 2000 BR BKN003
TEMPO 1620/1624 4000 SHRA BKN012
BECMG 1621/1624 15008KT
ATIS : +44 1279 669 325
No reported NOTAMs for that airfield.
3 SIGMETs reported for the London FIR (EGTT) :
 
Severe mountain waves
EGTT SIGMET 15 VALID 152000/152300 EGRR
EGTT LONDON FIR SEV MTW FCST WI N5500 W00128 - N5144 W00236 - N5154 W00504 - N5427 W00341 - N5500 W00434 - N5500 W00128 FL030/250 STNR WKN=
Severe turbulence
EGTT SIGMET 14 VALID 152000/152300 EGRR
EGTT LONDON FIR SEV TURB FCST WI N5220 W00530 - N5500 W00530 - N5500 E00304 - N5318 E00133 - N5011 W00526 - N5212 W00546 - N5220 W00530 SFC/FL060 MOV NE 30KT NC=
Severe icing
EGTT SIGMET 13 VALID 151830/152230 EGRR
EGTT LONDON FIR SEV ICE FCST WI N5323 E00107 - N5349 W00020 - N5500 W00123 - N5500 W00005 - N5323 E00107 FL030/100 MOV E 15KT NC=



MET'MAP, your aeronautical weather chart ! - Copyright ORBIFLY December 2007 - Disclaimer

ORBIFLY MET'MAP TEAM :

Programming & Development : Alexandra Zaïnal
Concept & Development : Baudouin d'Aumeries
Co-Development & Prog : Marc-Olivier Méhu
Technical & hardware support : Manuel Goepfert

Contact : metmap@orbifly.com




SOURCES & CREDITS :

   NOAA